createdAt,value
2022-12-18T00:00:48.150Z,97994.63
2022-12-18T00:03:15.822Z,97982.78
2022-12-18T00:05:53.171Z,97970.16
2022-12-18T00:08:20.253Z,97971.63
2022-12-18T00:10:46.906Z,97967.66
2022-12-18T00:13:13.681Z,97974.00
2022-12-18T00:15:40.609Z,97965.66
2022-12-18T00:18:08.024Z,97972.75
2022-12-18T00:20:39.116Z,97981.84
2022-12-18T00:23:06.974Z,97976.00
2022-12-18T00:25:37.272Z,97986.00
2022-12-18T00:28:04.657Z,97991.72
2022-12-18T00:30:31.450Z,97990.84
2022-12-18T00:32:58.534Z,98000.50
2022-12-18T00:35:25.001Z,97998.72
2022-12-18T00:37:51.539Z,98004.59
2022-12-18T00:40:17.975Z,98005.34
2022-12-18T00:42:56.505Z,98015.47
2022-12-18T00:45:28.723Z,98014.31
2022-12-18T00:47:56.234Z,98019.31
2022-12-18T00:50:24.567Z,98021.06
2022-12-18T00:52:51.028Z,98023.34
2022-12-18T00:55:18.006Z,98018.97
2022-12-18T00:57:44.827Z,98002.97
2022-12-18T01:00:14.142Z,98001.09
2022-12-18T01:02:41.651Z,98004.59
2022-12-18T01:05:10.712Z,98004.97
2022-12-18T01:07:37.250Z,98002.34
2022-12-18T01:10:05.431Z,97996.09
2022-12-18T01:12:31.838Z,98009.47
2022-12-18T01:14:58.195Z,98008.13
2022-12-18T01:17:24.810Z,98017.22
2022-12-18T01:19:51.291Z,98012.84
2022-12-18T01:22:17.665Z,98016.72
2022-12-18T01:24:43.983Z,98017.38
2022-12-18T01:27:10.411Z,98018.88
2022-12-18T01:29:36.854Z,98019.63
2022-12-18T01:32:03.430Z,98012.28
2022-12-18T01:34:30.030Z,98012.63
2022-12-18T01:36:56.477Z,98018.38
2022-12-18T01:39:22.823Z,98022.66
2022-12-18T01:42:05.013Z,98024.63
2022-12-18T01:45:01.911Z,98025.88
2022-12-18T01:47:37.502Z,98028.59
2022-12-18T01:50:06.910Z,98038.13
2022-12-18T01:52:34.454Z,98041.34
2022-12-18T01:55:02.711Z,98038.84
2022-12-18T01:57:29.826Z,98039.59
2022-12-18T02:00:00.566Z,98042.22
2022-12-18T02:02:28.637Z,98039.72
2022-12-18T02:04:55.127Z,98044.97
2022-12-18T02:08:00.437Z,98043.88
2022-12-18T02:10:45.310Z,98050.88
2022-12-18T02:13:31.205Z,98044.75
2022-12-18T02:16:09.069Z,98049.75
2022-12-18T02:18:42.734Z,98052.38
2022-12-18T02:21:21.401Z,98046.50
2022-12-18T02:24:10.619Z,98049.00
2022-12-18T02:26:48.570Z,98049.75
2022-12-18T02:29:19.157Z,98043.88
2022-12-18T02:31:55.247Z,98042.00
2022-12-18T02:34:26.946Z,98037.13
2022-12-18T02:36:55.725Z,98038.28
2022-12-18T02:39:24.751Z,98044.16
2022-12-18T02:41:51.697Z,98046.88
2022-12-18T02:44:18.215Z,98046.50
2022-12-18T02:46:49.950Z,98040.13
2022-12-18T02:49:55.223Z,98041.75
2022-12-18T02:53:16.006Z,98044.53
2022-12-18T02:56:03.819Z,98047.91
2022-12-18T02:58:48.230Z,98045.47
2022-12-18T03:01:42.901Z,98052.25
2022-12-18T03:04:17.740Z,98045.41
2022-12-18T03:06:54.376Z,98049.53
2022-12-18T03:09:28.677Z,98050.28
2022-12-18T03:12:18.773Z,98048.25
2022-12-18T03:14:47.051Z,98044.41
2022-12-18T03:17:19.298Z,98043.38
2022-12-18T03:19:48.622Z,98045.41
2022-12-18T03:22:17.154Z,98039.28
2022-12-18T03:24:43.665Z,98055.00
2022-12-18T03:27:15.594Z,98042.25
2022-12-18T03:30:08.175Z,98049.00
2022-12-18T03:32:46.052Z,98055.00
2022-12-18T03:35:15.406Z,98038.13
2022-12-18T03:37:41.833Z,98047.38
2022-12-18T03:40:08.769Z,98044.00
2022-12-18T03:42:45.080Z,98038.66
2022-12-18T03:45:30.278Z,98039.88
2022-12-18T03:48:02.486Z,98035.91
2022-12-18T03:50:41.718Z,98026.66
2022-12-18T03:53:30.875Z,98031.66
2022-12-18T03:56:00.164Z,98033.13
2022-12-18T03:58:28.142Z,98044.88
2022-12-18T04:00:57.914Z,98041.38
2022-12-18T04:03:26.866Z,98053.00
2022-12-18T04:05:56.244Z,98059.75
2022-12-18T04:08:24.447Z,98055.03
2022-12-18T04:10:50.809Z,98053.50
2022-12-18T04:13:25.336Z,98059.25
2022-12-18T04:15:52.080Z,98056.22
2022-12-18T04:18:18.436Z,98061.22
2022-12-18T04:20:44.773Z,98069.13
2022-12-18T04:23:11.126Z,98074.25
2022-12-18T04:25:37.498Z,98069.75
2022-12-18T04:28:04.085Z,98067.97
2022-12-18T04:30:30.404Z,98066.22
2022-12-18T04:32:56.776Z,98077.25
2022-12-18T04:35:23.312Z,98083.09
2022-12-18T04:37:49.724Z,98084.00
2022-12-18T04:40:16.223Z,98077.38
2022-12-18T04:42:42.620Z,98080.84
2022-12-18T04:45:09.653Z,98076.63
2022-12-18T04:47:36.123Z,98075.25
2022-12-18T04:50:02.533Z,98078.34
2022-12-18T04:52:28.867Z,98076.34
2022-12-18T04:54:55.216Z,98086.47
2022-12-18T04:57:21.618Z,98087.75
2022-12-18T04:59:47.946Z,98083.25
2022-12-18T05:02:14.382Z,98085.25
2022-12-18T05:04:40.862Z,98080.75
2022-12-18T05:07:07.201Z,98085.75
2022-12-18T05:09:33.567Z,98093.50
2022-12-18T05:11:59.999Z,98100.00
2022-12-18T05:14:28.431Z,98093.25
2022-12-18T05:17:00.564Z,98102.22
2022-12-18T05:19:27.385Z,98097.97
2022-12-18T05:21:53.727Z,98102.09
2022-12-18T05:24:20.161Z,98099.94
2022-12-18T05:26:46.596Z,98108.06
2022-12-18T05:29:13.268Z,98106.91
2022-12-18T05:31:40.484Z,98115.28
2022-12-18T05:34:08.469Z,98105.28
2022-12-18T05:36:34.849Z,98103.66
2022-12-18T05:39:02.353Z,98110.78
2022-12-18T05:41:29.509Z,98120.28
2022-12-18T05:43:55.997Z,98125.16
2022-12-18T05:46:22.521Z,98122.03
2022-12-18T05:48:51.085Z,98102.78
2022-12-18T05:51:21.001Z,98115.41
2022-12-18T05:53:48.254Z,98121.78
2022-12-18T05:56:17.658Z,98126.88
2022-12-18T05:58:44.539Z,98133.59
2022-12-18T06:01:15.028Z,98137.56
2022-12-18T06:03:41.887Z,98139.34
2022-12-18T06:06:19.990Z,98136.97
2022-12-18T06:08:49.201Z,98137.19
2022-12-18T06:11:20.756Z,98139.69
2022-12-18T06:13:53.486Z,98143.34
2022-12-18T06:16:22.973Z,98132.88
2022-12-18T06:18:49.411Z,98140.66
2022-12-18T06:21:15.830Z,98143.34
2022-12-18T06:23:43.082Z,98141.19
2022-12-18T06:26:14.652Z,98141.19
2022-12-18T06:28:41.248Z,98154.28
2022-12-18T06:31:09.002Z,98155.88
2022-12-18T06:33:36.248Z,98152.84
2022-12-18T06:36:13.462Z,98146.72
2022-12-18T06:38:42.631Z,98150.34
2022-12-18T06:41:10.678Z,98157.84
2022-12-18T06:43:37.658Z,98151.13
2022-12-18T06:46:06.036Z,98157.38
2022-12-18T06:48:33.269Z,98159.00
2022-12-18T06:51:00.115Z,98164.88
2022-12-18T06:53:26.753Z,98170.13
2022-12-18T06:55:53.308Z,98168.13
2022-12-18T06:58:19.731Z,98171.81
2022-12-18T07:00:47.458Z,98176.81
2022-12-18T07:03:15.015Z,98178.03
2022-12-18T07:05:41.824Z,98176.81
2022-12-18T07:08:08.349Z,98192.28
2022-12-18T07:10:46.291Z,98180.78
2022-12-18T07:13:13.928Z,98187.78
2022-12-18T07:15:40.668Z,98189.56
2022-12-18T07:18:07.118Z,98191.94
2022-12-18T07:20:33.510Z,98186.59
2022-12-18T07:22:59.892Z,98189.38
2022-12-18T07:25:26.237Z,98186.88
2022-12-18T07:27:52.573Z,98177.75
2022-12-18T07:30:18.913Z,98166.00
2022-12-18T07:32:45.447Z,98169.38
2022-12-18T07:35:11.855Z,98159.41
2022-12-18T07:37:38.334Z,98161.03
2022-12-18T07:40:05.306Z,98161.31
2022-12-18T07:42:31.685Z,98167.59
2022-12-18T07:44:59.397Z,98172.81
2022-12-18T07:47:25.888Z,98173.84
2022-12-18T07:49:52.786Z,98173.72
2022-12-18T07:52:25.615Z,98182.06
2022-12-18T07:54:52.495Z,98182.97
2022-12-18T07:57:41.821Z,98190.59
2022-12-18T08:00:05.897Z,98193.34
2022-12-18T08:02:32.889Z,98187.75
2022-12-18T08:04:59.545Z,98192.28
2022-12-18T08:07:26.065Z,98191.06
2022-12-18T08:09:52.502Z,98192.81
2022-12-18T08:12:18.863Z,98193.06
2022-12-18T08:14:45.205Z,98196.91
2022-12-18T08:17:11.605Z,98202.94
2022-12-18T08:19:38.048Z,98203.94
2022-12-18T08:22:04.498Z,98203.19
2022-12-18T08:24:30.894Z,98209.22
2022-12-18T08:27:28.017Z,98220.75
2022-12-18T08:29:44.481Z,98220.28
2022-12-18T08:32:10.867Z,98220.13
2022-12-18T08:34:37.417Z,98226.75
2022-12-18T08:37:03.829Z,98226.75
2022-12-18T08:39:30.502Z,98225.00
2022-12-18T08:42:15.360Z,98237.63
2022-12-18T08:44:42.150Z,98234.50
2022-12-18T08:47:08.739Z,98226.66
2022-12-18T08:49:35.959Z,98221.81
2022-12-18T08:52:03.652Z,98237.78
2022-12-18T08:54:30.369Z,98230.28
2022-12-18T08:56:56.759Z,98225.47
2022-12-18T08:59:24.069Z,98230.63
2022-12-18T09:01:50.591Z,98232.78
2022-12-18T09:04:17.458Z,98241.88
2022-12-18T09:06:44.394Z,98241.75
2022-12-18T09:09:11.075Z,98234.25
2022-12-18T09:11:38.157Z,98228.13
2022-12-18T09:14:04.574Z,98231.59
2022-12-18T09:16:33.130Z,98232.78
2022-12-18T09:19:00.791Z,98221.13
2022-12-18T09:21:30.587Z,98231.56
2022-12-18T09:23:57.744Z,98241.16
2022-12-18T09:26:25.642Z,98231.19
2022-12-18T09:28:52.461Z,98236.72
2022-12-18T09:31:21.533Z,98224.31
2022-12-18T09:33:48.074Z,98222.50
2022-12-18T09:36:17.661Z,98227.22
2022-12-18T09:38:44.988Z,98233.97
2022-12-18T09:41:20.173Z,98230.00
2022-12-18T09:43:50.753Z,98219.84
2022-12-18T09:46:26.300Z,98215.00
2022-12-18T09:48:56.754Z,98215.88
2022-12-18T09:51:27.301Z,98215.00
2022-12-18T09:54:02.492Z,98211.47
2022-12-18T09:56:32.888Z,98207.09
2022-12-18T09:59:01.117Z,98187.06
2022-12-18T10:01:36.380Z,98206.75
2022-12-18T10:04:09.885Z,98206.28
2022-12-18T10:07:23.836Z,98202.00
2022-12-18T10:10:31.006Z,98205.78
2022-12-18T10:13:16.444Z,98204.09
2022-12-18T10:16:13.112Z,98198.94
2022-12-18T10:18:48.005Z,98201.31
2022-12-18T10:21:20.000Z,98196.44
2022-12-18T10:24:13.172Z,98198.94
2022-12-18T10:26:40.534Z,98197.31
2022-12-18T10:29:15.159Z,98191.59
2022-12-18T10:31:41.882Z,98191.81
2022-12-18T10:34:12.190Z,98189.72
2022-12-18T10:36:38.764Z,98188.47
2022-12-18T10:39:23.841Z,98179.63
2022-12-18T10:41:50.273Z,98180.88
2022-12-18T10:44:24.808Z,98172.25
2022-12-18T10:46:56.802Z,98167.00
2022-12-18T10:49:32.462Z,98152.25
2022-12-18T10:52:22.695Z,98166.97
2022-12-18T10:54:59.351Z,98161.97
2022-12-18T10:57:39.521Z,98163.00
2022-12-18T11:00:22.914Z,98157.34
2022-12-18T11:02:49.680Z,98166.81
2022-12-18T11:05:27.259Z,98170.69
2022-12-18T11:07:55.257Z,98171.31
2022-12-18T11:10:28.220Z,98176.31
2022-12-18T11:12:56.225Z,98172.31
2022-12-18T11:15:28.623Z,98180.94
2022-12-18T11:17:55.108Z,98192.47
2022-12-18T11:20:30.587Z,98187.31
2022-12-18T11:22:59.688Z,98194.47
2022-12-18T11:25:35.106Z,98195.63
2022-12-18T11:28:25.888Z,98188.25
2022-12-18T11:31:19.780Z,98171.09
2022-12-18T11:34:28.658Z,98178.88
2022-12-18T11:36:58.526Z,98180.50
2022-12-18T11:39:37.143Z,98180.50
2022-12-18T11:42:18.098Z,98185.75
2022-12-18T11:44:54.693Z,98176.50
2022-12-18T11:47:40.241Z,98177.88
2022-12-18T11:50:15.111Z,98179.78
2022-12-18T11:52:42.015Z,98172.75
2022-12-18T11:55:16.046Z,98171.91
2022-12-18T11:58:07.334Z,98181.75
2022-12-18T12:00:39.813Z,98178.91
2022-12-18T12:03:28.408Z,98179.50
2022-12-18T12:06:15.497Z,98185.03
2022-12-18T12:09:26.267Z,98180.31
2022-12-18T12:12:04.409Z,98163.41
2022-12-18T12:14:46.321Z,98162.16
2022-12-18T12:17:30.695Z,98148.66
2022-12-18T12:20:21.470Z,98144.16
2022-12-18T12:22:59.885Z,98133.00
2022-12-18T12:25:45.575Z,98130.63
2022-12-18T12:28:35.941Z,98134.53
2022-12-18T12:31:31.481Z,98133.22
2022-12-18T12:34:05.411Z,98134.63
2022-12-18T12:36:48.141Z,98141.00
2022-12-18T12:39:23.999Z,98137.47
2022-12-18T12:42:09.058Z,98138.88
2022-12-18T12:44:41.988Z,98129.47
2022-12-18T12:47:21.539Z,98136.88
2022-12-18T12:49:50.800Z,98131.50
2022-12-18T12:52:36.811Z,98136.97
2022-12-18T12:55:10.305Z,98135.34
2022-12-18T12:57:44.325Z,98126.38
2022-12-18T13:00:13.795Z,98134.75
2022-12-18T13:02:53.156Z,98132.13
2022-12-18T13:05:44.483Z,98126.88
2022-12-18T13:08:22.668Z,98128.66
2022-12-18T13:10:50.543Z,98125.25
2022-12-18T13:13:20.428Z,98128.88
2022-12-18T13:16:07.482Z,98130.78
2022-12-18T13:18:34.923Z,98134.03
2022-12-18T13:21:03.508Z,98139.84
2022-12-18T13:23:37.135Z,98130.13
2022-12-18T13:26:12.606Z,98132.75
2022-12-18T13:28:48.142Z,98126.88
2022-12-18T13:31:36.379Z,98126.00
2022-12-18T13:34:28.248Z,98131.00
2022-12-18T13:37:00.375Z,98133.66
2022-12-18T13:39:36.437Z,98124.38
2022-12-18T13:42:06.964Z,98121.66
2022-12-18T13:44:40.853Z,98120.25
2022-12-18T13:47:32.365Z,98126.38
2022-12-18T13:49:59.951Z,98123.13
2022-12-18T13:52:29.488Z,98119.09
2022-12-18T13:54:58.659Z,98119.38
2022-12-18T13:57:33.955Z,98118.59
2022-12-18T14:00:17.682Z,98111.44
2022-12-18T14:02:46.353Z,98113.06
2022-12-18T14:05:26.608Z,98117.72
2022-12-18T14:07:54.677Z,98121.97
2022-12-18T14:13:11.296Z,98124.47
2022-12-18T14:15:48.825Z,98123.94
2022-12-18T14:18:22.699Z,98121.09
2022-12-18T14:20:53.099Z,98125.56
2022-12-18T14:23:46.239Z,98122.31
2022-12-18T14:26:30.593Z,98112.56
2022-12-18T14:29:02.562Z,98115.19
2022-12-18T14:31:31.456Z,98110.63
2022-12-18T14:33:58.082Z,98107.13
2022-12-18T14:36:26.619Z,98103.47
2022-12-18T14:38:55.753Z,98113.22
2022-12-18T14:41:23.425Z,98107.88
2022-12-18T14:43:52.351Z,98103.97
2022-12-18T14:46:42.550Z,98101.09
2022-12-18T14:49:30.186Z,98097.06
2022-12-18T14:51:59.902Z,98103.53
2022-12-18T14:54:28.270Z,98114.41
2022-12-18T14:57:01.340Z,98105.19
2022-12-18T14:59:29.356Z,98114.50
2022-12-18T15:02:28.418Z,98127.47
2022-12-18T15:05:12.713Z,98124.44
2022-12-18T15:07:43.194Z,98125.19
2022-12-18T15:10:16.504Z,98121.13
2022-12-18T15:12:48.270Z,98121.63
2022-12-18T15:15:43.702Z,98135.19
2022-12-18T15:18:11.351Z,98130.06
2022-12-18T15:20:53.134Z,98131.69
2022-12-18T15:23:23.329Z,98128.91
2022-12-18T15:26:06.961Z,98121.41
2022-12-18T15:28:39.076Z,98125.13
2022-12-18T15:31:09.845Z,98126.75
2022-12-18T15:33:40.572Z,98122.63
2022-12-18T15:36:13.043Z,98125.13
2022-12-18T15:38:39.738Z,98119.75
2022-12-18T15:41:11.574Z,98126.50
2022-12-18T15:43:40.884Z,98128.69
2022-12-18T15:46:25.099Z,98133.44
2022-12-18T15:49:01.447Z,98129.78
2022-12-18T15:51:30.818Z,98132.75
2022-12-18T15:53:59.807Z,98134.22
2022-12-18T15:56:45.783Z,98128.09
2022-12-18T15:59:15.293Z,98142.47
2022-12-18T16:01:43.179Z,98135.31
2022-12-18T16:04:13.869Z,98139.53
2022-12-18T16:07:05.639Z,98135.03
2022-12-18T16:09:27.575Z,98131.25
2022-12-18T16:11:54.031Z,98135.09
2022-12-18T16:14:29.108Z,98134.97
2022-12-18T16:17:01.430Z,98132.94
2022-12-18T16:19:28.885Z,98131.19
2022-12-18T16:21:57.578Z,98126.03
2022-12-18T16:24:30.154Z,98127.50
2022-12-18T16:26:59.955Z,98126.53
2022-12-18T16:29:28.475Z,98115.13
2022-12-18T16:31:56.311Z,98120.25
2022-12-18T16:34:29.437Z,98118.63
2022-12-18T16:37:05.734Z,98115.25
2022-12-18T16:39:34.873Z,98116.56
2022-12-18T16:42:03.374Z,98112.81
2022-12-18T16:44:32.779Z,98115.28
2022-12-18T16:47:02.703Z,98116.03
2022-12-18T16:49:29.734Z,98117.78
2022-12-18T16:51:56.387Z,98118.53
2022-12-18T16:54:22.828Z,98117.94
2022-12-18T16:56:51.209Z,98112.06
2022-12-18T16:59:17.936Z,98116.16
2022-12-18T17:01:44.649Z,98110.31
2022-12-18T17:04:11.340Z,98108.53
2022-12-18T17:06:43.194Z,98110.03
2022-12-18T17:09:14.577Z,98107.88
2022-12-18T17:11:41.276Z,98112.72
2022-12-18T17:14:15.595Z,98113.44
2022-12-18T17:16:42.513Z,98110.84
2022-12-18T17:19:13.708Z,98106.59
2022-12-18T17:21:44.998Z,98101.31
2022-12-18T17:24:11.527Z,98106.16
2022-12-18T17:26:37.919Z,98111.91
2022-12-18T17:29:04.566Z,98110.13
2022-12-18T17:31:31.123Z,98114.72
2022-12-18T17:33:58.197Z,98118.81
2022-12-18T17:36:28.429Z,98120.28
2022-12-18T17:38:57.250Z,98115.03
2022-12-18T17:41:24.926Z,98109.91
2022-12-18T17:43:56.522Z,98109.75
2022-12-18T17:46:23.595Z,98108.00
2022-12-18T17:48:50.121Z,98099.78
2022-12-18T17:51:17.833Z,98097.13
2022-12-18T17:53:45.076Z,98099.50
2022-12-18T17:56:16.017Z,98099.09
2022-12-18T17:58:43.871Z,98099.22
2022-12-18T18:01:14.001Z,98101.59
2022-12-18T18:03:43.636Z,98098.66
2022-12-18T18:06:10.553Z,98084.91
2022-12-18T18:08:37.071Z,98081.41
2022-12-18T18:11:24.795Z,98078.03
2022-12-18T18:14:05.081Z,98083.03
2022-12-18T18:16:33.512Z,98085.22
2022-12-18T18:19:08.123Z,98088.59
2022-12-18T18:21:37.775Z,98094.19
2022-12-18T18:24:05.330Z,98087.28
2022-12-18T18:26:33.294Z,98093.88
2022-12-18T18:29:01.969Z,98097.09
2022-12-18T18:31:32.524Z,98092.69
2022-12-18T18:34:01.321Z,98085.22
2022-12-18T18:36:28.111Z,98090.50
2022-12-18T18:38:59.257Z,98085.38
2022-12-18T18:41:25.662Z,98089.31
2022-12-18T18:43:56.846Z,98099.16
2022-12-18T18:46:23.841Z,98098.28
2022-12-18T18:48:50.294Z,98099.75
2022-12-18T18:51:20.317Z,98106.97
2022-12-18T18:53:50.092Z,98099.50
2022-12-18T18:56:45.340Z,98097.56
2022-12-18T18:59:05.691Z,98097.44
2022-12-18T19:01:32.254Z,98095.81
2022-12-18T19:03:58.793Z,98097.44
2022-12-18T19:06:27.957Z,98100.78
2022-12-18T19:08:55.920Z,98089.38
2022-12-18T19:11:42.643Z,98077.66
2022-12-18T19:14:11.786Z,98079.56
2022-12-18T19:16:38.351Z,98080.28
2022-12-18T19:19:05.843Z,98082.78
2022-12-18T19:21:34.373Z,98079.81
2022-12-18T19:24:02.588Z,98078.06
2022-12-18T19:26:29.361Z,98075.00
2022-12-18T19:29:04.725Z,98068.09
2022-12-18T19:31:35.487Z,98072.91
2022-12-18T19:34:03.746Z,98076.44
2022-12-18T19:36:30.906Z,98080.81
2022-12-18T19:39:00.093Z,98073.47
2022-12-18T19:41:29.203Z,98063.66
2022-12-18T19:43:58.510Z,98064.66
2022-12-18T19:46:25.016Z,98070.19
2022-12-18T19:48:51.734Z,98068.59
2022-12-18T19:51:19.979Z,98066.25
2022-12-18T19:53:47.173Z,98066.50
2022-12-18T19:56:16.539Z,98070.91
2022-12-18T19:58:44.440Z,98073.53
2022-12-18T20:01:13.599Z,98077.75
2022-12-18T20:03:45.416Z,98069.28
2022-12-18T20:06:28.224Z,98074.28
2022-12-18T20:09:00.650Z,98066.66
2022-12-18T20:11:32.015Z,98072.22
2022-12-18T20:14:01.284Z,98059.44
2022-12-18T20:16:28.011Z,98066.91
2022-12-18T20:18:54.997Z,98060.47
2022-12-18T20:21:21.424Z,98062.56
2022-12-18T20:23:47.793Z,98068.19
2022-12-18T20:26:14.379Z,98075.03
2022-12-18T20:28:40.868Z,98066.97
2022-12-18T20:31:13.583Z,98069.88
2022-12-18T20:33:41.059Z,98072.09
2022-12-18T20:36:12.773Z,98069.63
2022-12-18T20:38:39.549Z,98067.13
2022-12-18T20:41:15.252Z,98072.38
2022-12-18T20:43:42.294Z,98066.50
2022-12-18T20:46:10.582Z,98067.69
2022-12-18T20:48:42.882Z,98067.78
2022-12-18T20:51:12.078Z,98066.31
2022-12-18T20:53:41.721Z,98059.88
2022-12-18T20:56:21.056Z,98055.00
2022-12-18T20:58:48.750Z,98055.44
2022-12-18T21:01:19.111Z,98039.59
2022-12-18T21:03:46.405Z,98052.75
2022-12-18T21:06:15.275Z,98059.22
2022-12-18T21:08:42.113Z,98053.50
2022-12-18T21:11:40.506Z,98062.25
2022-12-18T21:14:09.635Z,98065.63
2022-12-18T21:16:36.896Z,98072.66
2022-12-18T21:19:04.298Z,98053.44
2022-12-18T21:21:35.864Z,98058.81
2022-12-18T21:24:06.048Z,98055.84
2022-12-18T21:26:32.524Z,98058.34
2022-12-18T21:29:13.740Z,98058.22
2022-12-18T21:31:42.997Z,98054.84
2022-12-18T21:34:14.725Z,98056.72
2022-12-18T21:36:41.096Z,98051.88
2022-12-18T21:39:08.158Z,98052.78
2022-12-18T21:41:53.322Z,98055.94
2022-12-18T21:44:22.020Z,98036.88
2022-12-18T21:46:55.210Z,98020.41
2022-12-18T21:49:24.024Z,98022.31
2022-12-18T21:51:55.984Z,98015.81
2022-12-18T21:54:23.255Z,98017.44
2022-12-18T21:57:04.919Z,98016.97
2022-12-18T21:59:40.037Z,98013.31
2022-12-18T22:02:18.819Z,98031.06
2022-12-18T22:04:46.829Z,98034.44
2022-12-18T22:07:15.010Z,98031.94
2022-12-18T22:09:41.858Z,98014.59
2022-12-18T22:12:11.413Z,98016.50
2022-12-18T22:14:38.132Z,98014.59
2022-12-18T22:17:04.521Z,98022.63
2022-12-18T22:19:31.823Z,98017.78
2022-12-18T22:21:58.174Z,98003.97
2022-12-18T22:24:26.387Z,97995.84
2022-12-18T22:26:59.535Z,97987.00
2022-12-18T22:29:46.994Z,97997.13
2022-12-18T22:32:16.841Z,98001.88
2022-12-18T22:34:46.698Z,98000.78
2022-12-18T22:37:13.342Z,97998.28
2022-12-18T22:39:40.015Z,97987.44
2022-12-18T22:42:07.399Z,97981.81
2022-12-18T22:44:33.843Z,97980.94
2022-12-18T22:47:06.011Z,97990.91
2022-12-18T22:49:33.938Z,97979.31
2022-12-18T22:52:02.096Z,97978.56
2022-12-18T22:54:28.475Z,97972.09
2022-12-18T22:56:55.394Z,97971.22
2022-12-18T22:59:22.959Z,97962.50
2022-12-18T23:01:50.600Z,97960.41
2022-12-18T23:04:19.893Z,97957.31
2022-12-18T23:06:47.254Z,97940.56
2022-12-18T23:09:16.457Z,97942.03
2022-12-18T23:11:43.204Z,97939.34
2022-12-18T23:14:09.548Z,97942.56
2022-12-18T23:16:35.932Z,97938.06
2022-12-18T23:19:03.441Z,97942.03
2022-12-18T23:21:30.107Z,97947.19
2022-12-18T23:23:57.224Z,97956.44
2022-12-18T23:26:25.573Z,97954.91
2022-12-18T23:28:53.386Z,97960.19
2022-12-18T23:31:23.718Z,97962.53
2022-12-18T23:33:51.119Z,97975.16
2022-12-18T23:36:18.279Z,97976.16
2022-12-18T23:38:49.326Z,97961.16
2022-12-18T23:41:17.979Z,97952.69
2022-12-18T23:43:44.514Z,97947.69
2022-12-18T23:46:18.991Z,97960.91
2022-12-18T23:48:46.122Z,97959.81
2022-12-18T23:51:14.162Z,97956.19
2022-12-18T23:53:41.131Z,97945.34
2022-12-18T23:56:08.561Z,97954.97
2022-12-18T23:58:36.200Z,97943.97
